Time;durP1;ratioP1;P1;durP2;ratioP2;P2;SDS_P1;SDS_P2;PMS_P1;PMS_P2;Temp;Humidity;BMP_temperature;BMP_pressure;BME280_temperature;BME280_humidity;BME280_pressure;Samples;Min_cycle;Max_cycle;Signal;HPM_P1;HPM_P2
2023/08/08 00:01:53;;;;;;;0.00;0.00;;;;;;;;;;4993198;28;19972;-61
2023/08/08 00:04:27;;;;;;;0.10;0.10;;;;;;;;;;4989407;28;20089;-62
2023/08/08 00:06:55;;;;;;;0.82;0.20;;;;;;;;;;4993084;28;20061;-62
2023/08/08 00:09:29;;;;;;;0.52;0.10;;;;;;;;;;4996256;28;20436;-62
2023/08/08 00:11:57;;;;;;;5.07;0.60;;;;;;;;;;4996704;28;20058;-62
2023/08/08 00:14:25;;;;;;;0.52;0.10;;;;;;;;;;4997543;28;20109;-62
2023/08/08 00:16:59;;;;;;;0.65;0.10;;;;;;;;;;4992984;28;20070;-54
2023/08/08 00:19:26;;;;;;;0.10;0.10;;;;;;;;;;4992582;28;20066;-52
2023/08/08 00:22:00;;;;;;;3.30;0.20;;;;;;;;;;4998074;28;20157;-50
2023/08/08 00:24:27;;;;;;;0.10;0.10;;;;;;;;;;4994929;28;20125;-51
2023/08/08 00:26:54;;;;;;;0.70;0.10;;;;;;;;;;5003296;28;20061;-71
2023/08/08 00:29:28;;;;;;;0.85;0.20;;;;;;;;;;4993042;28;20105;-58
2023/08/08 00:31:55;;;;;;;1.08;0.13;;;;;;;;;;4996453;28;20463;-58
2023/08/08 00:34:29;;;;;;;0.45;0.20;;;;;;;;;;4994173;28;20581;-58
2023/08/08 00:36:57;;;;;;;1.08;0.13;;;;;;;;;;4996773;28;20124;-58
2023/08/08 00:39:24;;;;;;;1.00;0.30;;;;;;;;;;4994868;28;20515;-58
2023/08/08 00:41:58;;;;;;;6.03;0.30;;;;;;;;;;4994622;28;20560;-58
2023/08/08 00:44:25;;;;;;;;;;;;;;;;;;4999201;28;20081;-71
2023/08/08 00:47:00;;;;;;;1.67;0.20;;;;;;;;;;4994308;28;19956;-71
2023/08/08 00:49:40;;;;;;;2.55;0.40;;;;;;;;;;4993475;28;20060;-71
2023/08/08 00:52:14;;;;;;;3.03;0.50;;;;;;;;;;4994351;28;20519;-71
2023/08/08 00:54:42;;;;;;;;;;;;;;;;;;4996311;28;20054;-45
2023/08/08 00:57:09;;;;;;;2.65;0.28;;;;;;;;;;4996896;28;20508;-55
2023/08/08 00:59:43;;;;;;;2.40;0.30;;;;;;;;;;4986261;28;20057;-70
2023/08/08 01:02:10;;;;;;;2.35;0.63;;;;;;;;;;4984647;28;20058;-70
2023/08/08 01:04:45;;;;;;;1.75;0.38;;;;;;;;;;4995383;28;20050;-71
2023/08/08 01:07:28;;;;;;;3.80;0.28;;;;;;;;;;4992875;28;20046;-69
2023/08/08 01:10:07;;;;;;;7.18;0.35;;;;;;;;;;4993885;28;20543;-70
2023/08/08 01:12:38;;;;;;;1.10;0.30;;;;;;;;;;4996912;28;20721;-70
2023/08/08 01:15:12;;;;;;;3.78;0.20;;;;;;;;;;4997090;28;20527;-69
2023/08/08 01:17:40;;;;;;;1.15;0.20;;;;;;;;;;4997304;28;20053;-70
2023/08/08 01:20:08;;;;;;;2.25;0.30;;;;;;;;;;4992061;28;20057;-71
2023/08/08 01:22:56;;;;;;;0.32;0.10;;;;;;;;;;4990587;28;20598;-50
2023/08/08 01:25:24;;;;;;;2.10;0.20;;;;;;;;;;4991484;28;20569;-56
2023/08/08 01:27:57;;;;;;;1.65;0.10;;;;;;;;;;4991281;28;20100;-59
2023/08/08 01:30:24;;;;;;;1.02;0.30;;;;;;;;;;4999485;28;20053;-59
2023/08/08 01:32:58;;;;;;;0.73;0.28;;;;;;;;;;4999536;28;20065;-58
2023/08/08 01:35:28;;;;;;;0.10;0.10;;;;;;;;;;4999204;28;20054;-59
2023/08/08 01:38:01;;;;;;;2.72;0.43;;;;;;;;;;4997453;28;20519;-59
2023/08/08 01:40:36;;;;;;;1.85;0.43;;;;;;;;;;5001159;28;20058;-59
2023/08/08 01:43:04;;;;;;;1.98;0.40;;;;;;;;;;5001545;28;20322;-59
2023/08/08 01:45:37;;;;;;;5.05;0.25;;;;;;;;;;4998628;28;20076;-58
2023/08/08 01:48:08;;;;;;;1.17;0.32;;;;;;;;;;5007064;28;20050;-58
2023/08/08 01:50:49;;;;;;;2.50;0.40;;;;;;;;;;5018799;28;20056;-59
2023/08/08 01:53:16;;;;;;;1.48;0.35;;;;;;;;;;5018065;28;20048;-54
2023/08/08 01:55:52;;;;;;;2.35;0.20;;;;;;;;;;5019108;28;20056;-69
2023/08/08 01:58:19;;;;;;;1.27;0.20;;;;;;;;;;5021693;28;20053;-70
2023/08/08 02:00:47;;;;;;;2.72;0.38;;;;;;;;;;5016198;28;20584;-70
2023/08/08 02:03:21;;;;;;;3.17;0.40;;;;;;;;;;5023384;28;20127;-70
2023/08/08 02:05:49;;;;;;;;;;;;;;;;;;5020201;28;20068;-70
2023/08/08 02:08:23;;;;;;;2.35;0.50;;;;;;;;;;5013854;28;20012;-71
2023/08/08 02:10:50;;;;;;;0.28;0.20;;;;;;;;;;5016944;28;20046;-51
2023/08/08 02:13:17;;;;;;;1.25;0.30;;;;;;;;;;5016441;28;20535;-54
2023/08/08 02:15:52;;;;;;;2.55;0.43;;;;;;;;;;5016854;28;20057;-48
2023/08/08 02:18:20;;;;;;;4.47;0.35;;;;;;;;;;5019951;28;20067;-54
2023/08/08 02:20:53;;;;;;;2.17;0.35;;;;;;;;;;5015202;28;21433;-59
2023/08/08 02:23:20;;;;;;;6.13;0.55;;;;;;;;;;5014416;28;20053;-58
2023/08/08 02:25:48;;;;;;;3.30;0.30;;;;;;;;;;5014462;28;20053;-59
2023/08/08 02:28:21;;;;;;;3.00;0.40;;;;;;;;;;5015562;28;20054;-58
2023/08/08 02:30:48;;;;;;;3.30;0.60;;;;;;;;;;5015295;28;20461;-58
2023/08/08 02:33:22;;;;;;;3.72;0.93;;;;;;;;;;5020698;28;20058;-58
2023/08/08 02:35:49;;;;;;;1.02;0.47;;;;;;;;;;5010076;28;20116;-58
2023/08/08 02:38:17;;;;;;;3.88;0.45;;;;;;;;;;5013850;28;20056;-70
2023/08/08 02:40:50;;;;;;;6.68;0.60;;;;;;;;;;5015389;28;20100;-71
2023/08/08 02:43:17;;;;;;;4.60;0.50;;;;;;;;;;5016484;28;20143;-70
2023/08/08 02:45:51;;;;;;;5.03;0.40;;;;;;;;;;5010213;28;20053;-71
2023/08/08 02:48:25;;;;;;;8.30;0.77;;;;;;;;;;5022987;28;20128;-56
2023/08/08 02:51:06;;;;;;;4.25;0.50;;;;;;;;;;4997160;28;20046;-51
2023/08/08 02:53:33;;;;;;;2.83;0.55;;;;;;;;;;4993037;28;20077;-63
2023/08/08 02:56:07;;;;;;;4.68;0.50;;;;;;;;;;4988872;28;20116;-63
2023/08/08 02:58:41;;;;;;;2.33;0.73;;;;;;;;;;4997012;28;20139;-63
2023/08/08 03:01:08;;;;;;;1.23;0.35;;;;;;;;;;4995105;28;20050;-63
2023/08/08 03:03:36;;;;;;;7.10;0.70;;;;;;;;;;4996072;28;20056;-63
2023/08/08 03:06:10;;;;;;;2.47;0.50;;;;;;;;;;4998997;28;20050;-63
2023/08/08 03:08:37;;;;;;;3.58;0.40;;;;;;;;;;4996145;28;20057;-55
2023/08/08 03:11:05;;;;;;;7.03;0.95;;;;;;;;;;4997128;28;20069;-55
2023/08/08 03:13:38;;;;;;;3.58;0.50;;;;;;;;;;4994653;28;20061;-56
2023/08/08 03:16:05;;;;;;;3.47;0.82;;;;;;;;;;4993945;28;20064;-57
2023/08/08 03:18:33;;;;;;;2.40;0.50;;;;;;;;;;4996673;28;20054;-59
2023/08/08 03:21:06;;;;;;;3.60;0.65;;;;;;;;;;5004314;28;20053;-56
2023/08/08 03:23:34;;;;;;;3.97;0.60;;;;;;;;;;4994930;28;20053;-57
2023/08/08 03:26:08;;;;;;;5.40;0.90;;;;;;;;;;4996477;28;20057;-57
2023/08/08 03:28:35;;;;;;;5.45;0.80;;;;;;;;;;4991244;28;20058;-56
2023/08/08 03:31:03;;;;;;;8.32;0.80;;;;;;;;;;4996008;28;20064;-56
2023/08/08 03:33:37;;;;;;;4.30;0.73;;;;;;;;;;4992387;28;20653;-59
2023/08/08 03:36:05;;;;;;;1.35;0.60;;;;;;;;;;4998044;28;20638;-55
2023/08/08 03:38:38;;;;;;;6.43;0.55;;;;;;;;;;4992410;28;20050;-55
2023/08/08 03:41:06;;;;;;;6.25;1.23;;;;;;;;;;4999824;28;20061;-56
2023/08/08 03:43:33;;;;;;;3.65;1.10;;;;;;;;;;4994562;28;20058;-57
2023/08/08 03:46:07;;;;;;;5.93;0.82;;;;;;;;;;4994471;28;20074;-59
2023/08/08 03:48:34;;;;;;;5.50;0.85;;;;;;;;;;4998475;28;20057;-52
2023/08/08 03:51:15;;;;;;;8.75;1.08;;;;;;;;;;5002213;28;20232;-50
2023/08/08 03:53:42;;;;;;;4.03;0.68;;;;;;;;;;4994489;28;20054;-48
2023/08/08 03:56:16;;;;;;;4.65;0.80;;;;;;;;;;4992221;28;20060;-48
2023/08/08 03:58:44;;;;;;;5.35;1.42;;;;;;;;;;4992474;28;20054;-52
2023/08/08 04:01:11;;;;;;;4.43;0.73;;;;;;;;;;4997636;28;20061;-50
2023/08/08 04:03:45;;;;;;;3.42;0.80;;;;;;;;;;4994106;28;20054;-59
2023/08/08 04:06:12;;;;;;;3.10;0.63;;;;;;;;;;4995483;28;20053;-60
2023/08/08 04:08:46;;;;;;;4.65;0.90;;;;;;;;;;4996152;28;20065;-60
2023/08/08 04:11:13;;;;;;;2.92;0.70;;;;;;;;;;4996655;28;20054;-59
2023/08/08 04:13:40;;;;;;;7.20;0.80;;;;;;;;;;4995413;28;20760;-59
2023/08/08 04:16:14;;;;;;;8.90;1.00;;;;;;;;;;4990463;28;20116;-72
2023/08/08 04:18:41;;;;;;;6.80;0.90;;;;;;;;;;4996454;28;20053;-60
2023/08/08 04:21:15;;;;;;;5.65;1.00;;;;;;;;;;4994383;28;20420;-60
2023/08/08 04:23:43;;;;;;;7.10;0.93;;;;;;;;;;4991627;28;20061;-60
2023/08/08 04:26:10;;;;;;;10.15;1.38;;;;;;;;;;4993891;28;20113;-60
2023/08/08 04:28:44;;;;;;;5.13;1.00;;;;;;;;;;4982343;28;20109;-60
2023/08/08 04:31:12;;;;;;;6.22;1.15;;;;;;;;;;4988059;28;20101;-60
2023/08/08 04:33:45;;;;;;;3.55;1.02;;;;;;;;;;4994063;28;20049;-60
2023/08/08 04:36:19;;;;;;;3.30;0.80;;;;;;;;;;4990035;28;20054;-60
2023/08/08 04:38:53;;;;;;;6.07;0.85;;;;;;;;;;4994593;28;20065;-61
2023/08/08 04:41:21;;;;;;;15.55;1.38;;;;;;;;;;4991402;28;20081;-60
2023/08/08 04:43:48;;;;;;;3.20;1.10;;;;;;;;;;4992717;28;20482;-57
2023/08/08 04:46:22;;;;;;;5.80;0.70;;;;;;;;;;4998219;28;20062;-59
2023/08/08 04:48:49;;;;;;;8.93;1.27;;;;;;;;;;5001027;28;20525;-60
2023/08/08 04:51:31;;;;;;;3.53;0.80;;;;;;;;;;4982298;28;20057;-59
2023/08/08 04:53:58;;;;;;;5.93;0.95;;;;;;;;;;4986905;28;20054;-59
2023/08/08 04:56:32;;;;;;;4.40;0.90;;;;;;;;;;4988935;28;20058;-57
2023/08/08 04:58:59;;;;;;;7.90;1.50;;;;;;;;;;4991471;28;20062;-59
2023/08/08 05:01:26;;;;;;;2.70;0.88;;;;;;;;;;4994780;28;22375;-60
2023/08/08 05:04:00;;;;;;;3.45;1.00;;;;;;;;;;4994276;28;20057;-60
2023/08/08 05:06:27;;;;;;;5.25;0.90;;;;;;;;;;4991309;28;20074;-59
2023/08/08 05:09:01;;;;;;;6.03;0.85;;;;;;;;;;4990365;28;20054;-60
2023/08/08 05:11:28;;;;;;;3.05;1.10;;;;;;;;;;4988666;28;20058;-59
2023/08/08 05:13:55;;;;;;;5.70;0.70;;;;;;;;;;4990610;28;20054;-60
2023/08/08 05:16:29;;;;;;;3.83;0.80;;;;;;;;;;4987332;28;20213;-61
2023/08/08 05:18:56;;;;;;;3.90;0.80;;;;;;;;;;4995676;28;20060;-60
2023/08/08 05:21:30;;;;;;;6.78;0.70;;;;;;;;;;4994559;28;20624;-60
2023/08/08 05:23:57;;;;;;;6.97;1.10;;;;;;;;;;4993391;28;20060;-60
2023/08/08 05:26:25;;;;;;;6.22;0.90;;;;;;;;;;4992098;28;20065;-60
2023/08/08 05:28:58;;;;;;;8.05;1.05;;;;;;;;;;4994508;28;20054;-60
2023/08/08 05:31:25;;;;;;;1.35;0.50;;;;;;;;;;4984891;28;20112;-60
2023/08/08 05:33:59;;;;;;;8.10;1.10;;;;;;;;;;4992432;28;20113;-60
2023/08/08 05:36:26;;;;;;;3.55;0.70;;;;;;;;;;4998247;28;20051;-60
2023/08/08 05:38:54;;;;;;;3.95;0.93;;;;;;;;;;4992412;28;20225;-57
2023/08/08 05:41:27;;;;;;;4.82;0.80;;;;;;;;;;4988627;28;20050;-64
2023/08/08 05:43:54;;;;;;;6.97;0.70;;;;;;;;;;4993572;28;20072;-59
2023/08/08 05:46:22;;;;;;;6.85;1.20;;;;;;;;;;4991002;28;20053;-59
2023/08/08 05:49:09;;;;;;;3.92;0.60;;;;;;;;;;4998141;28;20153;-59
2023/08/08 05:51:43;;;;;;;3.28;0.90;;;;;;;;;;4996235;28;20527;-59
2023/08/08 05:54:17;;;;;;;4.15;0.70;;;;;;;;;;4992235;28;21162;-59
2023/08/08 05:56:45;;;;;;;6.28;1.40;;;;;;;;;;4991314;28;20134;-60
2023/08/08 05:59:12;;;;;;;4.35;0.80;;;;;;;;;;4995670;28;20113;-63
2023/08/08 06:01:46;;;;;;;8.05;1.35;;;;;;;;;;4988090;28;20073;-64
2023/08/08 06:04:13;;;;;;;6.18;0.95;;;;;;;;;;4993065;28;20057;-64
2023/08/08 06:06:48;;;;;;;6.03;1.17;;;;;;;;;;4998444;28;20136;-63
2023/08/08 06:09:16;;;;;;;4.25;0.70;;;;;;;;;;4987665;28;20058;-64
2023/08/08 06:11:44;;;;;;;5.30;0.80;;;;;;;;;;4986845;28;20129;-59
2023/08/08 06:14:17;;;;;;;4.53;0.80;;;;;;;;;;4981978;28;20086;-59
2023/08/08 06:16:46;;;;;;;4.82;1.00;;;;;;;;;;4993329;28;20522;-60
2023/08/08 06:19:19;;;;;;;2.47;0.63;;;;;;;;;;4989968;28;20776;-59
2023/08/08 06:22:07;;;;;;;4.60;0.65;;;;;;;;;;4997896;28;20365;-59
2023/08/08 06:25:00;;;;;;;4.68;0.70;;;;;;;;;;5000109;28;20289;-60
2023/08/08 06:27:48;;;;;;;10.27;1.10;;;;;;;;;;4997241;28;20097;-59
2023/08/08 06:30:41;;;;;;;2.10;0.77;;;;;;;;;;4993070;28;20061;-59
2023/08/08 06:33:29;;;;;;;4.03;0.90;;;;;;;;;;4994276;28;20508;-59
2023/08/08 06:36:22;;;;;;;2.53;0.90;;;;;;;;;;4987374;28;20062;-57
2023/08/08 06:39:19;;;;;;;2.60;0.68;;;;;;;;;;4994173;28;20053;-71
2023/08/08 06:42:10;;;;;;;4.18;0.77;;;;;;;;;;4992469;28;20050;-71
2023/08/08 06:44:57;;;;;;;3.20;0.63;;;;;;;;;;4992611;28;20105;-72
2023/08/08 06:47:51;;;;;;;4.93;0.63;;;;;;;;;;4999705;28;20053;-72
2023/08/08 06:50:45;;;;;;;3.45;0.68;;;;;;;;;;4998237;28;20253;-72
2023/08/08 06:53:38;;;;;;;4.47;0.75;;;;;;;;;;4994573;28;20069;-73
2023/08/08 06:56:32;;;;;;;2.83;0.70;;;;;;;;;;4997075;28;20107;-51
2023/08/08 06:59:19;;;;;;;3.97;0.77;;;;;;;;;;4994217;28;20054;-54
2023/08/08 07:02:13;;;;;;;3.00;0.50;;;;;;;;;;4994046;28;20069;-52
2023/08/08 07:05:01;;;;;;;0.68;0.63;;;;;;;;;;4992444;28;20061;-72
2023/08/08 07:07:58;;;;;;;3.10;0.40;;;;;;;;;;4993359;28;20054;-64
2023/08/08 07:10:45;;;;;;;3.45;0.70;;;;;;;;;;4992210;28;20049;-65
2023/08/08 07:13:39;;;;;;;1.05;0.40;;;;;;;;;;4994547;28;20060;-64
2023/08/08 07:16:33;;;;;;;1.38;0.57;;;;;;;;;;4991046;28;20054;-67
2023/08/08 07:19:32;;;;;;;1.50;0.30;;;;;;;;;;4996995;28;20964;-65
2023/08/08 07:22:26;;;;;;;2.70;0.77;;;;;;;;;;4997981;28;20049;-60
2023/08/08 07:25:14;;;;;;;3.60;0.52;;;;;;;;;;4998266;28;20149;-61
2023/08/08 07:28:08;;;;;;;2.20;0.70;;;;;;;;;;5001772;28;20061;-61
2023/08/08 07:30:55;;;;;;;1.75;0.60;;;;;;;;;;4996401;28;20530;-60
2023/08/08 07:33:48;;;;;;;3.08;0.57;;;;;;;;;;4996074;28;20062;-75
2023/08/08 07:36:35;;;;;;;2.05;0.55;;;;;;;;;;4996367;28;20604;-64
2023/08/08 07:39:29;;;;;;;1.35;0.50;;;;;;;;;;4995928;28;20053;-65
2023/08/08 07:42:16;;;;;;;1.52;0.40;;;;;;;;;;4996031;28;20067;-64
2023/08/08 07:45:10;;;;;;;5.40;0.80;;;;;;;;;;4994322;28;20125;-65
2023/08/08 07:47:57;;;;;;;1.85;0.30;;;;;;;;;;4992032;28;20431;-64
2023/08/08 07:51:01;;;;;;;3.40;0.47;;;;;;;;;;4999999;28;20065;-54
2023/08/08 07:53:48;;;;;;;5.82;0.70;;;;;;;;;;4992276;28;20210;-59
2023/08/08 07:56:43;;;;;;;1.52;0.40;;;;;;;;;;4996306;28;20529;-59
2023/08/08 07:59:30;;;;;;;1.85;0.55;;;;;;;;;;4990793;28;20519;-59
2023/08/08 08:02:23;;;;;;;0.88;0.40;;;;;;;;;;4992227;28;20412;-53
2023/08/08 08:05:11;;;;;;;1.83;0.50;;;;;;;;;;4990559;28;20354;-65
2023/08/08 08:08:05;;;;;;;2.42;0.70;;;;;;;;;;4996134;28;20056;-65
2023/08/08 08:10:53;;;;;;;5.38;0.95;;;;;;;;;;4994348;28;20050;-64
2023/08/08 08:13:46;;;;;;;2.53;0.68;;;;;;;;;;4996129;28;20554;-66
2023/08/08 08:16:34;;;;;;;2.55;0.60;;;;;;;;;;4992435;28;20053;-64
2023/08/08 08:19:27;;;;;;;4.07;0.70;;;;;;;;;;4995604;28;20064;-54
2023/08/08 08:22:14;;;;;;;2.80;0.70;;;;;;;;;;4998317;28;20046;-53
2023/08/08 08:25:09;;;;;;;2.95;0.68;;;;;;;;;;4996807;28;20137;-54
2023/08/08 08:27:56;;;;;;;3.33;0.70;;;;;;;;;;5001759;28;20054;-51
2023/08/08 08:31:11;;;;;;;3.70;0.50;;;;;;;;;;4996184;28;20069;-48
2023/08/08 08:34:05;;;;;;;4.30;0.68;;;;;;;;;;4992276;28;20531;-60
2023/08/08 08:36:59;;;;;;;5.38;0.57;;;;;;;;;;4992543;28;20590;-59
2023/08/08 08:39:46;;;;;;;3.85;0.70;;;;;;;;;;4992499;28;20261;-59
2023/08/08 08:42:40;;;;;;;0.65;0.55;;;;;;;;;;4996036;28;20054;-60
2023/08/08 08:45:30;;;;;;;1.88;0.60;;;;;;;;;;4999697;28;20533;-60
2023/08/08 08:48:23;;;;;;;1.40;0.50;;;;;;;;;;4997598;28;20136;-59
2023/08/08 08:51:24;;;;;;;0.70;0.52;;;;;;;;;;4991091;28;20109;-59
2023/08/08 08:54:11;;;;;;;0.75;0.35;;;;;;;;;;4993469;28;20055;-60
2023/08/08 08:57:05;;;;;;;1.80;0.65;;;;;;;;;;4990982;28;20042;-59
2023/08/08 08:59:59;;;;;;;3.95;0.50;;;;;;;;;;4991997;28;20057;-50
2023/08/08 09:02:56;;;;;;;2.53;0.50;;;;;;;;;;4992834;28;20054;-74
2023/08/08 09:05:41;;;;;;;2.53;0.45;;;;;;;;;;4995313;28;20547;-74
2023/08/08 09:08:35;;;;;;;3.75;0.90;;;;;;;;;;4993507;28;20054;-73
2023/08/08 09:11:37;;;;;;;6.45;1.08;;;;;;;;;;4993166;28;20046;-74
2023/08/08 09:14:30;;;;;;;3.15;1.00;;;;;;;;;;4994225;28;20530;-74
2023/08/08 09:17:17;;;;;;;5.40;1.38;;;;;;;;;;4995235;28;20112;-54
2023/08/08 09:20:15;;;;;;;2.85;1.70;;;;;;;;;;4992122;28;20060;-53
2023/08/08 09:23:02;;;;;;;3.22;1.80;;;;;;;;;;4995270;28;20062;-55
2023/08/08 09:25:56;;;;;;;3.65;1.98;;;;;;;;;;4994315;28;20050;-54
2023/08/08 09:28:44;;;;;;;6.15;1.90;;;;;;;;;;4994060;28;20455;-62
2023/08/08 09:31:37;;;;;;;6.15;2.13;;;;;;;;;;4994311;28;20154;-63
2023/08/08 09:34:26;;;;;;;3.95;1.98;;;;;;;;;;4996489;28;20058;-59
2023/08/08 09:37:22;;;;;;;5.40;2.33;;;;;;;;;;4998503;28;20540;-59
2023/08/08 09:40:11;;;;;;;8.25;2.30;;;;;;;;;;4997145;28;20446;-59
2023/08/08 09:43:03;;;;;;;6.38;2.20;;;;;;;;;;4991163;28;20056;-59
2023/08/08 09:45:55;;;;;;;5.13;2.20;;;;;;;;;;4990088;28;20132;-59
2023/08/08 09:48:48;;;;;;;4.80;1.95;;;;;;;;;;4990261;28;20069;-59
2023/08/08 09:51:42;;;;;;;3.78;2.15;;;;;;;;;;4994742;28;20046;-59
2023/08/08 09:54:37;;;;;;;2.00;1.80;;;;;;;;;;4992081;28;20113;-59
2023/08/08 09:57:25;;;;;;;5.72;1.80;;;;;;;;;;4987233;28;20058;-62
2023/08/08 10:00:20;;;;;;;2.00;1.30;;;;;;;;;;4994844;28;21144;-57
2023/08/08 10:03:07;;;;;;;2.42;1.30;;;;;;;;;;4998084;28;20435;-57
2023/08/08 10:06:01;;;;;;;1.23;0.95;;;;;;;;;;4998649;28;20046;-54
2023/08/08 10:08:56;;;;;;;1.02;0.90;;;;;;;;;;4997673;28;20637;-57
2023/08/08 10:11:44;;;;;;;1.00;0.90;;;;;;;;;;4996888;28;20081;-56
2023/08/08 10:14:38;;;;;;;4.07;1.00;;;;;;;;;;4996528;28;20179;-60
2023/08/08 10:17:25;;;;;;;2.95;0.70;;;;;;;;;;4995534;28;20050;-60
2023/08/08 10:20:19;;;;;;;2.45;1.00;;;;;;;;;;5002641;28;20297;-59
2023/08/08 10:23:07;;;;;;;2.85;0.70;;;;;;;;;;4996733;28;20049;-59
2023/08/08 10:26:02;;;;;;;2.97;0.98;;;;;;;;;;4995412;28;20118;-57
2023/08/08 10:28:59;;;;;;;0.82;0.55;;;;;;;;;;4999501;28;20050;-55
2023/08/08 10:32:03;;;;;;;0.57;0.43;;;;;;;;;;4999653;28;20066;-54
2023/08/08 10:34:50;;;;;;;1.10;0.63;;;;;;;;;;4997950;28;20107;-54
2023/08/08 10:37:54;;;;;;;2.40;0.50;;;;;;;;;;4994580;28;20069;-55
2023/08/08 10:40:51;;;;;;;4.00;0.77;;;;;;;;;;4997817;28;20042;-54
2023/08/08 10:43:49;;;;;;;0.98;0.40;;;;;;;;;;4997689;28;20054;-60
2023/08/08 10:46:38;;;;;;;2.40;0.40;;;;;;;;;;4996518;28;20046;-61
2023/08/08 10:49:36;;;;;;;5.88;0.75;;;;;;;;;;4998908;28;20065;-60
2023/08/08 10:52:23;;;;;;;0.47;0.40;;;;;;;;;;5003537;28;20058;-70
2023/08/08 10:55:21;;;;;;;3.80;0.85;;;;;;;;;;4999523;28;20061;-51
2023/08/08 10:58:09;;;;;;;5.22;1.02;;;;;;;;;;4996352;28;20163;-49
2023/08/08 11:01:07;;;;;;;2.80;1.13;;;;;;;;;;4992662;28;20042;-54
2023/08/08 11:03:50;;;;;;;5.63;1.20;;;;;;;;;;4995286;28;20076;-53
2023/08/08 11:06:45;;;;;;;5.72;1.35;;;;;;;;;;4993363;28;20049;-52
2023/08/08 11:09:32;;;;;;;6.35;1.50;;;;;;;;;;4993630;28;20534;-56
2023/08/08 11:12:28;;;;;;;9.73;1.52;;;;;;;;;;4992851;28;20048;-60
2023/08/08 11:15:15;;;;;;;4.97;1.27;;;;;;;;;;4991030;28;20054;-59
2023/08/08 11:18:10;;;;;;;15.60;1.52;;;;;;;;;;4994904;28;20535;-60
2023/08/08 11:20:57;;;;;;;16.00;1.50;;;;;;;;;;4997278;28;20059;-72
2023/08/08 11:23:52;;;;;;;13.02;1.60;;;;;;;;;;4997922;28;20593;-54
2023/08/08 11:26:45;;;;;;;9.38;1.73;;;;;;;;;;4994221;28;20726;-48
2023/08/08 11:29:37;;;;;;;8.05;1.48;;;;;;;;;;4995262;28;20136;-51
2023/08/08 11:32:24;;;;;;;7.60;1.15;;;;;;;;;;4993180;28;20062;-50
2023/08/08 11:35:25;;;;;;;14.25;1.52;;;;;;;;;;4992050;28;20164;-49
2023/08/08 11:38:13;;;;;;;13.98;1.85;;;;;;;;;;4990668;28;20988;-53
2023/08/08 11:41:06;;;;;;;12.68;2.15;;;;;;;;;;4989778;28;20049;-54
2023/08/08 11:43:54;;;;;;;5.38;1.35;;;;;;;;;;5000480;28;20057;-51
2023/08/08 11:46:48;;;;;;;7.07;1.52;;;;;;;;;;4997460;28;20050;-52
2023/08/08 11:49:48;;;;;;;8.88;1.52;;;;;;;;;;4997710;28;20766;-60
2023/08/08 11:52:51;;;;;;;7.00;2.00;;;;;;;;;;4997512;28;20050;-64
2023/08/08 11:55:38;;;;;;;12.43;1.83;;;;;;;;;;4997725;28;20061;-64
2023/08/08 11:58:31;;;;;;;12.57;2.30;;;;;;;;;;4996550;28;20510;-63
2023/08/08 12:01:23;;;;;;;11.25;2.30;;;;;;;;;;4993033;28;20090;-64
2023/08/08 12:04:21;;;;;;;14.60;2.17;;;;;;;;;;4994877;28;20054;-64
2023/08/08 12:07:08;;;;;;;18.02;3.00;;;;;;;;;;4988677;28;20113;-51
2023/08/08 12:10:01;;;;;;;18.35;2.90;;;;;;;;;;4989862;28;20534;-49
2023/08/08 12:12:56;;;;;;;22.05;2.83;;;;;;;;;;4993341;28;20046;-54
2023/08/08 12:15:50;;;;;;;16.52;2.78;;;;;;;;;;4989001;28;20160;-55
2023/08/08 12:18:44;;;;;;;15.27;2.45;;;;;;;;;;4993059;28;20207;-58
2023/08/08 12:21:37;;;;;;;14.52;3.60;;;;;;;;;;4991802;28;20074;-60
2023/08/08 12:24:24;;;;;;;18.65;3.05;;;;;;;;;;4994726;28;20053;-60
2023/08/08 12:27:19;;;;;;;26.42;3.60;;;;;;;;;;4994715;28;20776;-59
2023/08/08 12:30:07;;;;;;;21.17;2.95;;;;;;;;;;4993357;28;20086;-59
2023/08/08 12:33:01;;;;;;;22.40;3.55;;;;;;;;;;4991296;28;20477;-60
2023/08/08 12:35:49;;;;;;;26.43;3.63;;;;;;;;;;4991914;28;20522;-59
2023/08/08 12:38:43;;;;;;;29.52;4.75;;;;;;;;;;4989801;28;20116;-59
2023/08/08 12:41:30;;;;;;;29.77;4.07;;;;;;;;;;4995322;28;20054;-59
2023/08/08 12:44:23;;;;;;;21.83;3.70;;;;;;;;;;4995233;28;20062;-59
2023/08/08 12:47:19;;;;;;;29.38;4.13;;;;;;;;;;4990638;28;20058;-54
2023/08/08 12:50:14;;;;;;;28.67;3.92;;;;;;;;;;4996802;28;20062;-73
2023/08/08 12:53:07;;;;;;;29.77;4.43;;;;;;;;;;4994028;28;20875;-73
2023/08/08 12:55:54;;;;;;;36.80;4.68;;;;;;;;;;4995819;28;20610;-72
2023/08/08 12:58:49;;;;;;;32.58;4.03;;;;;;;;;;4993569;28;20510;-73
2023/08/08 13:01:36;;;;;;;25.92;4.07;;;;;;;;;;4985477;28;20123;-73
2023/08/08 13:04:30;;;;;;;18.90;3.70;;;;;;;;;;4992979;28;20515;-59
2023/08/08 13:07:18;;;;;;;20.23;3.70;;;;;;;;;;4991986;28;20420;-58
2023/08/08 13:10:11;;;;;;;21.23;4.07;;;;;;;;;;4988647;28;20058;-59
2023/08/08 13:12:59;;;;;;;21.58;3.70;;;;;;;;;;4986926;28;20061;-59
2023/08/08 13:15:52;;;;;;;25.88;3.55;;;;;;;;;;4983074;28;20462;-63
2023/08/08 13:18:40;;;;;;;21.85;3.30;;;;;;;;;;4988610;28;20053;-56
2023/08/08 13:21:33;;;;;;;14.35;2.80;;;;;;;;;;4988619;28;20049;-58
2023/08/08 13:24:28;;;;;;;22.55;3.05;;;;;;;;;;4988856;28;20046;-57
2023/08/08 13:27:15;;;;;;;17.33;2.38;;;;;;;;;;4994667;28;20057;-58
2023/08/08 13:30:09;;;;;;;11.63;2.85;;;;;;;;;;4999267;28;20053;-58
2023/08/08 13:32:56;;;;;;;20.25;3.13;;;;;;;;;;4997667;28;20093;-60
2023/08/08 13:35:50;;;;;;;15.65;3.10;;;;;;;;;;4995824;28;20562;-59
2023/08/08 13:38:38;;;;;;;30.27;3.58;;;;;;;;;;4995942;28;20109;-60
2023/08/08 13:41:31;;;;;;;24.45;3.30;;;;;;;;;;5001374;28;20060;-59
2023/08/08 13:44:26;;;;;;;24.92;3.95;;;;;;;;;;5000300;28;20057;-54
2023/08/08 13:47:21;;;;;;;27.33;4.40;;;;;;;;;;4997500;28;20519;-52
2023/08/08 13:50:28;;;;;;;33.35;4.95;;;;;;;;;;5003121;28;20545;-57
2023/08/08 13:53:22;;;;;;;40.58;5.05;;;;;;;;;;5004232;28;20057;-57
2023/08/08 13:56:17;;;;;;;40.38;6.38;;;;;;;;;;4999721;28;20407;-57
2023/08/08 13:59:04;;;;;;;38.45;5.45;;;;;;;;;;5001032;28;20054;-56
2023/08/08 14:01:58;;;;;;;51.15;6.30;;;;;;;;;;4998042;28;20082;-60
2023/08/08 14:04:46;;;;;;;41.05;5.88;;;;;;;;;;4995198;28;20395;-60
2023/08/08 14:07:39;;;;;;;41.35;5.80;;;;;;;;;;5002707;28;20058;-60
2023/08/08 14:10:27;;;;;;;36.72;5.95;;;;;;;;;;4997608;28;20050;-60
2023/08/08 14:13:21;;;;;;;42.97;6.53;;;;;;;;;;4998368;28;20062;-50
2023/08/08 14:16:07;;;;;;;39.47;5.50;;;;;;;;;;4994093;28;20054;-50
2023/08/08 14:19:01;;;;;;;45.53;6.10;;;;;;;;;;4995209;28;20288;-49
2023/08/08 14:21:49;;;;;;;53.40;6.03;;;;;;;;;;4998051;28;20050;-49
2023/08/08 14:24:43;;;;;;;53.10;6.55;;;;;;;;;;4995044;28;20913;-50
2023/08/08 14:27:30;;;;;;;45.70;7.07;;;;;;;;;;4997919;28;20112;-50
2023/08/08 14:30:27;;;;;;;52.13;6.90;;;;;;;;;;4999379;28;20061;-59
2023/08/08 14:33:13;;;;;;;48.63;6.75;;;;;;;;;;4997211;28;20057;-59
2023/08/08 14:36:07;;;;;;;45.13;6.60;;;;;;;;;;4999623;28;20845;-59
2023/08/08 14:39:02;;;;;;;52.97;6.57;;;;;;;;;;4997597;28;20113;-59
2023/08/08 14:41:49;;;;;;;53.30;6.70;;;;;;;;;;4992698;28;20054;-53
2023/08/08 14:44:43;;;;;;;43.58;6.35;;;;;;;;;;4999314;28;20089;-65
2023/08/08 14:47:29;;;;;;;47.13;6.45;;;;;;;;;;4990638;28;20113;-64
2023/08/08 14:50:36;;;;;;;50.45;6.45;;;;;;;;;;5000550;28;20511;-63
2023/08/08 14:53:30;;;;;;;38.95;5.90;;;;;;;;;;4997916;28;20054;-63
2023/08/08 14:56:24;;;;;;;57.28;7.28;;;;;;;;;;4990423;28;20514;-64
2023/08/08 14:59:12;;;;;;;47.70;6.10;;;;;;;;;;4996669;28;20049;-60
2023/08/08 15:02:05;;;;;;;56.85;6.68;;;;;;;;;;4997590;28;20049;-60
2023/08/08 15:05:00;;;;;;;54.58;7.18;;;;;;;;;;4993129;28;20046;-60
2023/08/08 15:07:47;;;;;;;47.75;7.53;;;;;;;;;;4987743;28;20081;-72
2023/08/08 15:10:40;;;;;;;45.78;6.07;;;;;;;;;;4987882;28;20514;-59
2023/08/08 15:13:30;;;;;;;52.25;6.88;;;;;;;;;;4992000;28;20054;-60
2023/08/08 15:16:30;;;;;;;42.25;5.93;;;;;;;;;;4988606;28;20065;-59
2023/08/08 15:19:17;;;;;;;44.38;6.30;;;;;;;;;;4992366;28;20054;-58
2023/08/08 15:22:11;;;;;;;46.95;6.28;;;;;;;;;;4991977;28;20050;-59
2023/08/08 15:24:59;;;;;;;42.42;6.85;;;;;;;;;;4987357;28;20062;-60
2023/08/08 15:27:52;;;;;;;51.08;7.53;;;;;;;;;;4990643;28;20070;-59
2023/08/08 15:30:40;;;;;;;63.95;8.10;;;;;;;;;;4996663;28;20518;-60
2023/08/08 15:33:33;;;;;;;56.13;7.68;;;;;;;;;;4994366;28;20058;-59
2023/08/08 15:36:28;;;;;;;49.72;6.93;;;;;;;;;;4995352;28;20073;-60
2023/08/08 15:39:15;;;;;;;58.50;6.80;;;;;;;;;;4990203;28;20125;-65
2023/08/08 15:42:09;;;;;;;50.17;6.60;;;;;;;;;;4995721;28;20052;-60
2023/08/08 15:44:56;;;;;;;48.80;6.57;;;;;;;;;;4992667;28;21421;-60
2023/08/08 15:47:51;;;;;;;53.58;7.72;;;;;;;;;;4993707;28;20054;-60
2023/08/08 15:50:43;;;;;;;49.55;6.05;;;;;;;;;;4996856;28;20050;-60
2023/08/08 15:53:38;;;;;;;54.85;8.10;;;;;;;;;;4995627;28;20088;-60
2023/08/08 15:56:25;;;;;;;50.83;7.38;;;;;;;;;;4996775;28;20112;-65
2023/08/08 15:59:19;;;;;;;54.10;7.57;;;;;;;;;;5000818;28;20132;-66
2023/08/08 16:02:06;;;;;;;42.70;6.43;;;;;;;;;;4991202;28;20077;-65
2023/08/08 16:05:01;;;;;;;50.33;6.25;;;;;;;;;;4989666;28;20050;-52
2023/08/08 16:07:53;;;;;;;57.85;7.65;;;;;;;;;;4993233;28;20061;-65
2023/08/08 16:10:47;;;;;;;41.15;5.95;;;;;;;;;;4986475;28;20392;-66
2023/08/08 16:13:35;;;;;;;51.63;6.53;;;;;;;;;;4989395;28;20144;-66
2023/08/08 16:16:28;;;;;;;53.63;7.57;;;;;;;;;;4987975;28;20065;-66